Time;durP1;ratioP1;P1;durP2;ratioP2;P2;SDS_P1;SDS_P2;PMS_P1;PMS_P2;Temp;Humidity;BMP_temperature;BMP_pressure;BME280_temperature;BME280_humidity;BME280_pressure;Samples;Min_cycle;Max_cycle;Signal;HPM_P1;HPM_P2
2022/09/16 00:00:43;;;;;;;;;;;;;;;14.57;72.61;101131.50;4981231;28;19937;-82
2022/09/16 00:03:08;;;;;;;;;;;;;;;14.55;73.32;101128.09;5001687;28;19918;-82
2022/09/16 00:05:38;;;;;;;;;;;;;;;14.56;73.09;101128.91;4998329;28;19964;-82
2022/09/16 00:08:04;;;;;;;;;;;;;;;14.54;72.99;101126.38;5002296;28;19980;-82
2022/09/16 00:10:29;;;;;;;;;;;;;;;14.54;73.06;101126.38;4980574;28;19909;-82
2022/09/16 00:12:55;;;;;;;;;;;;;;;14.53;72.95;101123.81;4984225;28;19927;-82
2022/09/16 00:15:20;;;;;;;;;;;;;;;14.52;73.04;101122.97;4998866;28;20136;-82
2022/09/16 00:17:45;;;;;;;;;;;;;;;14.51;73.59;101123.88;5002002;28;20314;-82
2022/09/16 00:20:10;;;;;;;;;;;;;;;14.52;73.43;101128.22;4980176;28;20109;-82
2022/09/16 00:22:36;;;;;;;;;;;;;;;14.52;73.21;101128.22;4982846;28;20297;-82
2022/09/16 00:25:01;;;;;;;;;;;;;;;14.51;73.94;101126.50;4983686;28;20119;-82
2022/09/16 00:27:26;;;;;;;;;;;;;;;14.48;72.39;101136.38;4965303;28;19992;-82
2022/09/16 00:29:52;;;;;;;;;;;;;;;14.44;72.46;101125.13;5001844;28;19913;-82
2022/09/16 00:32:18;;;;;;;;;;;;;;;14.42;72.21;101132.28;4998967;28;19925;-82
2022/09/16 00:34:43;;;;;;;;;;;;;;;14.39;72.06;101132.44;4983901;28;19921;-82
2022/09/16 00:37:08;;;;;;;;;;;;;;;14.37;72.02;101135.16;4981805;28;20263;-82
2022/09/16 00:39:34;;;;;;;;;;;;;;;14.37;72.21;101136.91;5004186;28;19913;-82
2022/09/16 00:42:00;;;;;;;;;;;;;;;14.37;72.14;101134.28;4997498;28;20217;-82
2022/09/16 00:44:44;;;;;;;;;;;;;;;14.38;72.26;101138.63;5007546;28;19921;-82
2022/09/16 00:47:10;;;;;;;;;;;;;;;14.38;72.69;101131.56;4997324;28;19920;-82
2022/09/16 00:49:35;;;;;;;;;;;;;;;14.37;72.18;101126.38;4998075;28;19921;-82
2022/09/16 00:52:02;;;;;;;;;;;;;;;14.37;72.21;101129.00;5004401;28;19949;-82
2022/09/16 00:54:28;;;;;;;;;;;;;;;14.38;72.88;101128.94;5002466;28;19914;-82
2022/09/16 00:56:54;;;;;;;;;;;;;;;14.38;73.16;101123.66;5001193;28;19913;-82
2022/09/16 00:59:23;;;;;;;;;;;;;;;14.39;73.55;101138.56;4985081;28;19914;-82
2022/09/16 01:01:49;;;;;;;;;;;;;;;14.40;73.89;101128.88;4979472;28;19968;-82
2022/09/16 01:04:20;;;;;;;;;;;;;;;14.40;74.09;101129.72;4984444;28;19917;-82
2022/09/16 01:06:45;;;;;;;;;;;;;;;14.40;74.04;101119.16;5001589;28;20201;-81
2022/09/16 01:09:11;;;;;;;;;;;;;;;14.40;74.03;101129.72;4984569;28;19909;-82
2022/09/16 01:11:36;;;;;;;;;;;;;;;14.42;74.11;101131.44;4997451;28;19913;-82
2022/09/16 01:16:57;;;;;;;;;;;;;;;14.43;74.19;101138.41;4997330;28;19963;-82
2022/09/16 01:19:40;;;;;;;;;;;;;;;14.44;74.08;101156.75;4968789;28;20260;-82
2022/09/16 01:22:08;;;;;;;;;;;;;;;14.44;73.77;101151.47;4978219;28;20215;-82
2022/09/16 01:25:00;;;;;;;;;;;;;;;14.43;73.60;101155.06;4982200;28;19914;-82
2022/09/16 01:27:44;;;;;;;;;;;;;;;14.41;73.50;101167.47;4952508;28;19949;-81
2022/09/16 01:30:16;;;;;;;;;;;;;;;14.40;73.68;101173.66;4988952;28;19925;-81
2022/09/16 01:32:56;;;;;;;;;;;;;;;14.37;73.69;101177.31;4960067;28;20213;-81
2022/09/16 01:35:27;;;;;;;;;;;;;;;14.35;73.86;101166.00;4982136;28;19941;-81
2022/09/16 01:38:14;;;;;;;;;;;;;;;14.34;74.12;101156.38;4977234;28;20202;-81
2022/09/16 01:40:53;;;;;;;;;;;;;;;14.33;74.30;101149.41;4961131;28;19910;-81
2022/09/16 01:43:38;;;;;;;;;;;;;;;14.33;74.39;101152.03;4977778;28;20122;-81
2022/09/16 01:46:24;;;;;;;;;;;;;;;14.33;74.16;101152.03;4986996;28;19964;-81
2022/09/16 01:48:58;;;;;;;;;;;;;;;14.34;74.25;101150.28;4952460;28;19989;-81
2022/09/16 01:51:30;;;;;;;;;;;;;;;14.32;74.43;101154.78;4977625;28;20053;-81
2022/09/16 01:54:05;;;;;;;;;;;;;;;14.32;74.24;101152.13;4959735;28;19914;-81
2022/09/16 01:56:34;;;;;;;;;;;;;;;14.31;74.17;101158.31;4966828;28;19910;-81
2022/09/16 01:59:25;;;;;;;;;;;;;;;14.31;74.31;101150.41;4977471;28;19944;-81
2022/09/16 02:01:58;;;;;;;;;;;;;;;14.31;74.45;101153.06;4951541;28;20221;-81
2022/09/16 02:04:28;;;;;;;;;;;;;;;14.31;74.17;101160.97;4980208;28;20117;-81
2022/09/16 02:06:55;;;;;;;;;;;;;;;14.29;74.36;101147.88;4961277;28;19981;-81
2022/09/16 02:09:28;;;;;;;;;;;;;;;14.30;74.25;101154.84;4979779;28;19918;-81
2022/09/16 02:11:54;;;;;;;;;;;;;;;14.29;74.59;101147.03;4979080;28;19960;-81
2022/09/16 02:14:23;;;;;;;;;;;;;;;14.28;74.50;101146.19;4977660;28;20062;-81
2022/09/16 02:16:58;;;;;;;;;;;;;;;14.28;74.31;101150.56;4981781;28;20262;-81
2022/09/16 02:19:43;;;;;;;;;;;;;;;14.27;74.42;101149.72;4969383;28;19928;-81
2022/09/16 02:22:11;;;;;;;;;;;;;;;14.26;74.53;101148.03;4982059;28;19910;-81
2022/09/16 02:24:37;;;;;;;;;;;;;;;14.26;74.34;101144.53;4983168;28;19941;-81
2022/09/16 02:27:05;;;;;;;;;;;;;;;14.26;74.70;101147.16;4983895;28;20094;-81
2022/09/16 02:29:33;;;;;;;;;;;;;;;14.26;74.76;101157.69;4981369;28;19937;-81
2022/09/16 02:32:01;;;;;;;;;;;;;;;14.25;74.90;101161.28;4984514;28;19977;-82
2022/09/16 02:34:30;;;;;;;;;;;;;;;14.23;75.06;101179.81;4983333;28;19932;-81
2022/09/16 02:36:58;;;;;;;;;;;;;;;14.19;75.52;101175.63;4974367;28;19917;-81
2022/09/16 02:39:27;;;;;;;;;;;;;;;14.16;75.84;101170.50;4979903;28;20200;-81
2022/09/16 02:41:54;;;;;;;;;;;;;;;14.14;75.82;101167.94;4985185;28;20180;-81
2022/09/16 02:44:20;;;;;;;;;;;;;;;14.13;75.78;101158.31;4980582;28;19914;-81
2022/09/16 02:46:52;;;;;;;;;;;;;;;14.13;75.95;101149.56;4984750;28;19977;-81
2022/09/16 02:49:32;;;;;;;;;;;;;;;14.13;75.70;101153.06;4982705;28;19940;-81
2022/09/16 02:51:59;;;;;;;;;;;;;;;14.13;75.75;101142.50;4979727;28;20221;-81
2022/09/16 02:54:32;;;;;;;;;;;;;;;14.12;75.76;101154.00;4980600;28;19917;-81
2022/09/16 02:56:58;;;;;;;;;;;;;;;14.13;75.65;101163.59;4978932;28;19972;-81
2022/09/16 02:59:24;;;;;;;;;;;;;;;14.12;75.44;101163.69;4980722;28;20009;-81
2022/09/16 03:01:49;;;;;;;;;;;;;;;14.08;75.31;101163.00;4980785;28;19918;-81
2022/09/16 03:04:17;;;;;;;;;;;;;;;14.05;75.28;101151.75;4980544;28;19985;-82
2022/09/16 03:06:42;;;;;;;;;;;;;;;14.03;75.26;101143.94;4986323;28;20260;-81
2022/09/16 03:09:11;;;;;;;;;;;;;;;14.02;75.35;101143.09;4979855;28;19925;-81
2022/09/16 03:11:42;;;;;;;;;;;;;;;14.01;75.56;101144.00;4981346;28;19977;-81
2022/09/16 03:14:13;;;;;;;;;;;;;;;14.02;75.16;101139.56;4978794;28;19914;-81
2022/09/16 03:16:44;;;;;;;;;;;;;;;14.01;75.36;101138.72;4980070;28;19914;-81
2022/09/16 03:19:17;;;;;;;;;;;;;;;14.01;75.46;101141.38;4993703;28;19971;-81
2022/09/16 03:21:42;;;;;;;;;;;;;;;14.02;75.31;101147.47;4989537;28;20467;-81
2022/09/16 03:24:26;;;;;;;;;;;;;;;14.00;75.47;101147.56;4982054;28;19910;-81
2022/09/16 03:27:04;;;;;;;;;;;;;;;14.00;75.40;101142.28;5006303;28;19918;-81
2022/09/16 03:29:32;;;;;;;;;;;;;;;14.00;75.28;101141.44;4998049;28;19905;-81
2022/09/16 03:32:07;;;;;;;;;;;;;;;13.99;75.13;101145.03;5012180;28;20283;-81
2022/09/16 03:34:55;;;;;;;;;;;;;;;13.99;75.22;101145.88;5007782;28;19985;-81
2022/09/16 03:37:22;;;;;;;;;;;;;;;13.99;75.53;101139.75;4963648;28;19909;-81
2022/09/16 03:39:53;;;;;;;;;;;;;;;13.98;75.34;101138.03;4998919;28;19936;-81
2022/09/16 03:42:18;;;;;;;;;;;;;;;13.97;75.38;101134.56;5010976;28;19918;-82
2022/09/16 03:44:44;;;;;;;;;;;;;;;13.97;75.37;101128.41;4981081;28;20137;-81
2022/09/16 03:47:09;;;;;;;;;;;;;;;13.96;75.34;101130.22;4981191;28;19928;-81
2022/09/16 03:49:34;;;;;;;;;;;;;;;13.97;75.53;101141.59;4981217;28;20307;-81
2022/09/16 03:52:00;;;;;;;;;;;;;;;13.95;75.33;101146.94;4998998;28;19952;-81
2022/09/16 03:54:26;;;;;;;;;;;;;;;13.95;75.57;101146.94;4981382;28;19913;-81
2022/09/16 03:56:51;;;;;;;;;;;;;;;13.95;75.48;101154.84;4998483;28;19918;-81
2022/09/16 03:59:16;;;;;;;;;;;;;;;13.94;75.51;101152.28;5001829;28;19913;-81
2022/09/16 04:01:42;;;;;;;;;;;;;;;13.93;75.62;101154.06;4981299;28;19936;-81
2022/09/16 04:04:07;;;;;;;;;;;;;;;13.92;75.36;101159.41;4998940;28;19941;-81
2022/09/16 04:06:32;;;;;;;;;;;;;;;13.91;75.45;101144.53;5000875;28;19921;-81
2022/09/16 04:08:59;;;;;;;;;;;;;;;13.91;75.75;101148.00;4998628;28;19985;-81
2022/09/16 04:11:25;;;;;;;;;;;;;;;13.90;75.44;101135.78;4982035;28;20156;-82
2022/09/16 04:13:50;;;;;;;;;;;;;;;13.90;75.71;101135.78;4980764;28;19913;-81
2022/09/16 04:16:22;;;;;;;;;;;;;;;13.90;75.75;101134.91;4968072;28;19929;-81
2022/09/16 04:18:48;;;;;;;;;;;;;;;13.90;75.73;101129.66;4986879;28;19922;-82
2022/09/16 04:21:13;;;;;;;;;;;;;;;13.90;75.82;101124.38;4980082;28;20214;-81
2022/09/16 04:23:38;;;;;;;;;;;;;;;13.89;75.78;101123.53;4979157;28;19957;-81
2022/09/16 04:26:04;;;;;;;;;;;;;;;13.88;75.77;101131.50;4978529;28;20409;-81
2022/09/16 04:28:31;;;;;;;;;;;;;;;13.86;75.83;101123.72;4946485;28;19917;-81
2022/09/16 04:31:01;;;;;;;;;;;;;;;13.86;75.77;101117.59;4961535;28;20112;-81
2022/09/16 04:33:28;;;;;;;;;;;;;;;13.85;75.92;101116.75;4980372;28;19988;-81
2022/09/16 04:35:53;;;;;;;;;;;;;;;13.83;75.59;101116.81;4954816;28;19925;-81
2022/09/16 04:38:18;;;;;;;;;;;;;;;13.82;75.88;101111.63;4980721;28;20100;-81
2022/09/16 04:40:44;;;;;;;;;;;;;;;13.81;76.01;101115.19;4960972;28;19941;-81
2022/09/16 04:43:09;;;;;;;;;;;;;;;13.78;75.81;101118.81;4979540;28;19960;-81
2022/09/16 04:45:34;;;;;;;;;;;;;;;13.78;75.75;101141.66;4961050;28;19961;-81
2022/09/16 04:48:00;;;;;;;;;;;;;;;13.77;75.91;101124.16;4962066;28;19957;-81
2022/09/16 04:50:25;;;;;;;;;;;;;;;13.77;76.13;101119.75;4961253;28;19941;-81
2022/09/16 04:52:50;;;;;;;;;;;;;;;13.76;75.82;101120.66;4979135;28;20205;-81
2022/09/16 04:55:16;;;;;;;;;;;;;;;13.75;76.24;101119.00;4978935;28;19942;-82
2022/09/16 04:57:41;;;;;;;;;;;;;;;13.76;76.29;101122.47;4961755;28;19922;-81
2022/09/16 05:00:07;;;;;;;;;;;;;;;13.75;75.95;101120.75;4965203;28;20153;-81
2022/09/16 05:02:32;;;;;;;;;;;;;;;13.74;75.92;101114.63;4946871;28;20143;-81
2022/09/16 05:04:58;;;;;;;;;;;;;;;13.73;75.87;101123.44;4978115;28;19918;-81
2022/09/16 05:07:23;;;;;;;;;;;;;;;13.72;75.96;101124.41;4980548;28;20098;-81
2022/09/16 05:09:48;;;;;;;;;;;;;;;13.72;76.22;101120.91;4944169;28;19985;-82
2022/09/16 05:12:14;;;;;;;;;;;;;;;13.70;75.92;101128.00;4960800;28;19957;-81
2022/09/16 05:14:39;;;;;;;;;;;;;;;13.70;76.23;101128.00;4960273;28;19953;-81
2022/09/16 05:17:04;;;;;;;;;;;;;;;13.68;76.09;101127.25;4960193;28;20036;-82
2022/09/16 05:19:30;;;;;;;;;;;;;;;13.67;76.28;101128.19;4975108;28;19989;-82
2022/09/16 05:21:55;;;;;;;;;;;;;;;13.67;76.25;101128.19;4981335;28;19922;-81
2022/09/16 05:24:20;;;;;;;;;;;;;;;13.67;76.33;101128.19;4945692;28;19969;-81
2022/09/16 05:26:45;;;;;;;;;;;;;;;13.65;76.31;101130.88;4991281;28;19925;-81
2022/09/16 05:29:12;;;;;;;;;;;;;;;13.65;76.46;101132.66;4961709;28;19918;-81
2022/09/16 05:31:39;;;;;;;;;;;;;;;13.65;76.36;101130.03;4966025;28;19953;-82
2022/09/16 05:34:06;;;;;;;;;;;;;;;13.64;76.16;101131.78;4976057;28;19929;-82
2022/09/16 05:36:33;;;;;;;;;;;;;;;13.63;76.50;101132.75;4958983;28;19965;-82
2022/09/16 05:38:59;;;;;;;;;;;;;;;13.63;76.48;101138.84;4976220;28;19922;-81
2022/09/16 05:41:24;;;;;;;;;;;;;;;13.62;76.16;101134.53;4960298;28;20517;-82
2022/09/16 05:43:50;;;;;;;;;;;;;;;13.61;76.16;101143.34;4979334;28;20113;-82
2022/09/16 05:46:20;;;;;;;;;;;;;;;13.62;76.45;101157.34;4983056;28;19965;-81
2022/09/16 05:48:45;;;;;;;;;;;;;;;13.60;76.56;101148.66;4978971;28;19918;-82
2022/09/16 05:51:13;;;;;;;;;;;;;;;13.60;76.76;101146.03;4973258;28;19945;-82
2022/09/16 05:53:38;;;;;;;;;;;;;;;13.60;77.11;101146.03;4979637;28;19917;-81
2022/09/16 05:56:05;;;;;;;;;;;;;;;13.58;76.96;101142.63;4976451;28;20128;-81
2022/09/16 05:58:31;;;;;;;;;;;;;;;13.58;77.09;101151.38;4979981;28;20121;-82
2022/09/16 06:00:57;;;;;;;;;;;;;;;13.57;77.22;101143.53;4976155;28;19921;-82
2022/09/16 06:03:22;;;;;;;;;;;;;;;13.56;77.21;101150.59;4986413;28;20285;-82
2022/09/16 06:05:47;;;;;;;;;;;;;;;13.58;77.26;101161.91;4979441;28;19965;-81
2022/09/16 06:08:13;;;;;;;;;;;;;;;13.55;77.26;101167.34;4990516;28;19921;-82
2022/09/16 06:10:39;;;;;;;;;;;;;;;13.53;77.34;101163.03;4976048;28;19918;-81
2022/09/16 06:13:04;;;;;;;;;;;;;;;13.48;77.19;101165.03;4976197;28;20010;-81
2022/09/16 06:15:30;;;;;;;;;;;;;;;13.46;77.44;101167.75;4976121;28;19918;-81
2022/09/16 06:17:55;;;;;;;;;;;;;;;13.46;77.47;101173.00;4975705;28;19926;-81
2022/09/16 06:20:21;;;;;;;;;;;;;;;13.43;77.30;101162.66;4978497;28;20014;-82
2022/09/16 06:22:46;;;;;;;;;;;;;;;13.41;76.90;101165.34;4975971;28;20223;-81
2022/09/16 06:25:11;;;;;;;;;;;;;;;13.38;76.93;101165.47;4978594;28;19965;-83
2022/09/16 06:27:37;;;;;;;;;;;;;;;13.36;76.37;101163.84;4975838;28;20220;-81
2022/09/16 06:30:02;;;;;;;;;;;;;;;13.33;76.44;101162.22;4976492;28;20201;-81
2022/09/16 06:32:31;;;;;;;;;;;;;;;13.33;76.40;101170.09;4970220;28;19922;-81
2022/09/16 06:34:56;;;;;;;;;;;;;;;13.32;76.10;101167.56;4976104;28;19922;-81
2022/09/16 06:37:21;;;;;;;;;;;;;;;13.31;76.25;101169.31;4955651;28;19922;-81
2022/09/16 06:39:47;;;;;;;;;;;;;;;13.32;76.18;101164.94;4989735;28;19929;-81
2022/09/16 06:42:12;;;;;;;;;;;;;;;13.32;76.25;101168.41;4971856;28;19924;-81
2022/09/16 06:44:37;;;;;;;;;;;;;;;13.32;76.20;101157.88;4971536;28;19937;-83
2022/09/16 06:47:02;;;;;;;;;;;;;;;13.34;76.36;101156.03;4982346;28;19929;-80
2022/09/16 06:49:28;;;;;;;;;;;;;;;13.35;76.43;101160.38;4978833;28;19928;-82
2022/09/16 06:51:53;;;;;;;;;;;;;;;13.36;76.59;101163.84;4982418;28;19953;-82
2022/09/16 06:54:18;;;;;;;;;;;;;;;13.37;76.74;101152.41;4968291;28;19933;-82
2022/09/16 06:56:44;;;;;;;;;;;;;;;13.39;77.01;101153.19;4983125;28;19914;-82
2022/09/16 06:59:10;;;;;;;;;;;;;;;13.39;77.24;101151.41;4989758;28;19950;-82
2022/09/16 07:01:35;;;;;;;;;;;;;;;13.40;77.40;101144.38;4957432;28;20233;-82
2022/09/16 07:04:05;;;;;;;;;;;;;;;13.41;77.34;101144.28;4960940;28;19922;-83
2022/09/16 07:06:31;;;;;;;;;;;;;;;13.42;77.57;101138.13;4966644;28;20237;-83
2022/09/16 07:08:57;;;;;;;;;;;;;;;13.44;77.58;101145.91;4963183;28;19921;-83
2022/09/16 07:11:23;;;;;;;;;;;;;;;13.47;77.82;101153.66;4965482;28;20205;-82
2022/09/16 07:13:48;;;;;;;;;;;;;;;13.48;77.80;101151.88;4958595;28;20237;-82
2022/09/16 07:16:15;;;;;;;;;;;;;;;13.50;77.87;101152.66;4994122;28;19933;-82
2022/09/16 07:18:41;;;;;;;;;;;;;;;13.51;77.58;101164.91;4992123;28;19972;-82
2022/09/16 07:21:09;;;;;;;;;;;;;;;13.51;77.68;101184.16;4971383;28;19918;-82
2022/09/16 07:23:35;;;;;;;;;;;;;;;13.46;77.90;101180.06;4980370;28;19918;-83
2022/09/16 07:26:02;;;;;;;;;;;;;;;13.40;77.19;101174.16;5006290;28;20179;-82
2022/09/16 07:28:27;;;;;;;;;;;;;;;13.39;77.45;101171.63;5001819;28;19957;-82
2022/09/16 07:30:52;;;;;;;;;;;;;;;13.38;77.36;101175.16;4993017;28;19918;-83
2022/09/16 07:33:18;;;;;;;;;;;;;;;13.40;77.23;101173.31;5008978;28;19913;-82
2022/09/16 07:35:43;;;;;;;;;;;;;;;13.39;77.35;101174.25;5019622;28;19925;-82
2022/09/16 07:38:09;;;;;;;;;;;;;;;13.40;77.50;101181.19;4993397;28;19921;-83
2022/09/16 07:40:35;;;;;;;;;;;;;;;13.41;77.06;101182.91;5004643;28;20038;-81
2022/09/16 07:43:06;;;;;;;;;;;;;;;13.42;77.05;101179.34;4972806;28;20268;-80
2022/09/16 07:45:31;;;;;;;;;;;;;;;13.42;77.20;101180.22;5006274;28;20149;-83
2022/09/16 07:47:56;;;;;;;;;;;;;;;13.43;76.92;101178.44;4993423;28;19921;-82
2022/09/16 07:50:22;;;;;;;;;;;;;;;13.44;77.10;101174.84;4993866;28;19970;-81
2022/09/16 07:52:47;;;;;;;;;;;;;;;13.45;77.10;101181.84;5000894;28;19925;-82
2022/09/16 07:55:14;;;;;;;;;;;;;;;13.44;77.22;101180.13;4987460;28;20104;-83
2022/09/16 07:57:40;;;;;;;;;;;;;;;13.46;77.19;101183.53;5024320;28;19917;-82
2022/09/16 08:00:05;;;;;;;;;;;;;;;13.48;77.64;101179.06;4986866;28;20431;-82
2022/09/16 08:02:31;;;;;;;;;;;;;;;13.48;77.57;101180.81;5005031;28;19976;-82
2022/09/16 08:04:56;;;;;;;;;;;;;;;13.50;77.56;101184.22;5003487;28;19925;-82
2022/09/16 08:07:21;;;;;;;;;;;;;;;13.50;77.60;101173.72;4972770;28;19917;-82
2022/09/16 08:09:47;;;;;;;;;;;;;;;13.52;77.93;101185.88;4977757;28;19917;-82
2022/09/16 08:12:13;;;;;;;;;;;;;;;13.53;77.69;101194.63;4994088;28;19956;-82
2022/09/16 08:14:38;;;;;;;;;;;;;;;13.54;78.11;101191.06;4966618;28;19918;-82
2022/09/16 08:17:04;;;;;;;;;;;;;;;13.53;77.97;101198.09;4994151;28;20274;-82
2022/09/16 08:19:29;;;;;;;;;;;;;;;13.52;78.16;101211.34;5000742;28;19926;-82
2022/09/16 08:21:54;;;;;;;;;;;;;;;13.51;78.38;101228.91;5003411;28;19922;-82
2022/09/16 08:24:20;;;;;;;;;;;;;;;13.50;78.94;101224.56;4997963;28;19926;-82
2022/09/16 08:26:45;;;;;;;;;;;;;;;13.50;79.06;101227.22;4998597;28;20120;-82
2022/09/16 08:29:10;;;;;;;;;;;;;;;13.50;79.13;101228.97;4999754;28;20193;-81
2022/09/16 08:31:36;;;;;;;;;;;;;;;13.49;78.83;101224.63;4978006;28;19921;-81
2022/09/16 08:34:02;;;;;;;;;;;;;;;13.49;78.84;101222.00;5007131;28;20148;-80
2022/09/16 08:36:27;;;;;;;;;;;;;;;13.51;78.91;101225.41;4964647;28;19922;-81
2022/09/16 08:38:56;;;;;;;;;;;;;;;13.53;78.81;101226.19;4989593;28;20235;-81
2022/09/16 08:41:24;;;;;;;;;;;;;;;13.55;78.93;101229.59;5003996;28;19926;-80
2022/09/16 08:43:55;;;;;;;;;;;;;;;13.57;78.81;101231.25;5011859;28;20188;-83
2022/09/16 08:46:29;;;;;;;;;;;;;;;13.57;78.92;101236.53;4979012;28;19941;-80
2022/09/16 08:48:59;;;;;;;;;;;;;;;13.58;78.94;101248.75;4986557;28;19925;-80
2022/09/16 08:51:27;;;;;;;;;;;;;;;13.58;78.63;101256.63;4980896;28;19914;-80
2022/09/16 08:53:57;;;;;;;;;;;;;;;13.60;78.61;101260.03;4975468;28;19918;-81
2022/09/16 08:56:26;;;;;;;;;;;;;;;13.58;78.95;101264.53;4978967;28;19914;-80
2022/09/16 08:58:53;;;;;;;;;;;;;;;13.58;78.63;101271.56;4984960;28;20156;-81
2022/09/16 09:01:34;;;;;;;;;;;;;;;13.54;78.47;101260.34;4980639;28;19906;-81
2022/09/16 09:04:00;;;;;;;;;;;;;;;13.52;78.23;101254.28;4982655;28;19925;-80
2022/09/16 09:06:40;;;;;;;;;;;;;;;13.51;78.35;101249.94;4970309;28;19921;-80
2022/09/16 09:09:29;;;;;;;;;;;;;;;13.50;78.09;101257.91;4983689;28;19917;-80
2022/09/16 09:12:01;;;;;;;;;;;;;;;13.50;78.02;101253.53;4980944;28;19989;-81
2022/09/16 09:14:26;;;;;;;;;;;;;;;13.50;77.88;101253.53;4993209;28;19918;-80
2022/09/16 09:16:55;;;;;;;;;;;;;;;13.51;77.88;101265.72;4978615;28;19925;-80
2022/09/16 09:19:30;;;;;;;;;;;;;;;13.51;77.86;101260.47;4971680;28;19921;-80
2022/09/16 09:22:04;;;;;;;;;;;;;;;13.54;77.66;101256.88;4994141;28;19914;-80
2022/09/16 09:24:29;;;;;;;;;;;;;;;13.55;77.65;101263.81;4993342;28;19960;-81
2022/09/16 09:27:03;;;;;;;;;;;;;;;13.55;77.69;101263.81;5008806;28;19964;-80
2022/09/16 09:29:43;;;;;;;;;;;;;;;13.55;77.62;101277.84;4997397;28;19956;-80
2022/09/16 09:32:15;;;;;;;;;;;;;;;13.55;77.53;101282.22;4981974;28;20074;-81
2022/09/16 09:34:59;;;;;;;;;;;;;;;13.53;77.52;101284.94;4999652;28;20291;-81
2022/09/16 09:37:40;;;;;;;;;;;;;;;13.50;77.71;101285.09;4992755;28;19916;-82
2022/09/16 09:40:12;;;;;;;;;;;;;;;13.45;77.43;101287.06;5001525;28;19917;-81
2022/09/16 09:42:46;;;;;;;;;;;;;;;13.40;77.42;101281.16;4988133;28;19964;-83
2022/09/16 09:45:27;;;;;;;;;;;;;;;13.39;77.68;101285.59;4980987;28;19921;-80
2022/09/16 09:48:02;;;;;;;;;;;;;;;13.39;77.59;101267.16;4990177;28;19921;-82
2022/09/16 09:50:40;;;;;;;;;;;;;;;13.37;77.81;101261.13;4983424;28;19922;-82
2022/09/16 09:53:05;;;;;;;;;;;;;;;13.40;77.92;101268.00;4967688;28;19925;-82
2022/09/16 09:55:32;;;;;;;;;;;;;;;13.42;78.34;101268.78;4992838;28;20075;-82
2022/09/16 09:58:04;;;;;;;;;;;;;;;13.46;78.48;101253.72;4997657;28;20144;-82
2022/09/16 10:00:29;;;;;;;;;;;;;;;13.50;78.47;101253.53;4989442;28;19925;-82
2022/09/16 10:03:02;;;;;;;;;;;;;;;13.53;78.37;101247.25;4967685;28;19922;-83
2022/09/16 10:05:28;;;;;;;;;;;;;;;13.58;78.29;101253.16;4989330;28;19922;-82
2022/09/16 10:07:58;;;;;;;;;;;;;;;13.60;78.15;101244.25;4975138;28;20123;-83
2022/09/16 10:10:24;;;;;;;;;;;;;;;13.62;78.56;101258.22;4975027;28;19918;-83
2022/09/16 10:12:49;;;;;;;;;;;;;;;13.63;79.22;101259.91;4974717;28;19981;-83
2022/09/16 10:15:27;;;;;;;;;;;;;;;13.63;79.88;101256.44;4994083;28;19956;-82
2022/09/16 10:17:53;;;;;;;;;;;;;;;13.63;79.90;101252.00;4993685;28;20184;-83
2022/09/16 10:20:29;;;;;;;;;;;;;;;13.64;79.84;101252.84;4993471;28;19917;-82
2022/09/16 10:22:57;;;;;;;;;;;;;;;13.63;79.93;101259.91;4980669;28;20097;-82
2022/09/16 10:25:24;;;;;;;;;;;;;;;13.64;79.85;101273.91;5010717;28;19928;-83
2022/09/16 10:28:00;;;;;;;;;;;;;;;13.62;79.89;101260.84;4967048;28;20210;-86
2022/09/16 10:30:31;;;;;;;;;;;;;;;13.61;79.77;101242.50;4988491;28;19918;-86
2022/09/16 10:32:56;;;;;;;;;;;;;;;13.61;79.81;101243.34;4989409;28;19918;-82
2022/09/16 10:35:23;;;;;;;;;;;;;;;13.63;79.61;101240.63;5001091;28;20146;-83
2022/09/16 10:38:00;;;;;;;;;;;;;;;13.62;79.23;101239.78;4994665;28;20265;-83
2022/09/16 10:40:25;;;;;;;;;;;;;;;13.63;79.34;101238.84;4988091;28;19989;-83
2022/09/16 10:42:52;;;;;;;;;;;;;;;13.65;79.13;101241.41;5012183;28;20167;-83
2022/09/16 10:45:23;;;;;;;;;;;;;;;13.68;79.07;101251.81;4991556;28;19925;-83
2022/09/16 10:47:50;;;;;;;;;;;;;;;13.63;79.81;101236.22;4991695;28;19914;-83
2022/09/16 10:50:17;;;;;;;;;;;;;;;13.63;79.67;101244.13;5001084;28;19924;-83
2022/09/16 10:52:44;;;;;;;;;;;;;;;13.65;79.72;101237.94;4983737;28;19918;-84
2022/09/16 10:55:19;;;;;;;;;;;;;;;13.66;79.68;101243.13;4981016;28;19969;-82
2022/09/16 10:57:45;;;;;;;;;;;;;;;13.68;79.71;101250.94;4991997;28;19920;-82
2022/09/16 11:00:13;;;;;;;;;;;;;;;13.69;80.02;101245.59;4993002;28;19918;-82
2022/09/16 11:02:57;;;;;;;;;;;;;;;13.72;79.58;101245.47;5002087;28;20145;-82
2022/09/16 11:05:32;;;;;;;;;;;;;;;13.73;79.09;101251.56;5002976;28;19921;-82
2022/09/16 11:08:36;;;;;;;;;;;;;;;13.74;79.14;101246.25;4974838;28;19920;-82
2022/09/16 11:11:04;;;;;;;;;;;;;;;13.74;78.59;101255.94;4949986;28;19954;-82
2022/09/16 11:13:29;;;;;;;;;;;;;;;13.74;77.67;101255.94;4953165;28;19989;-84
2022/09/16 11:16:13;;;;;;;;;;;;;;;13.76;78.40;101246.19;4968963;28;19984;-82
2022/09/16 11:18:50;;;;;;;;;;;;;;;13.80;78.46;101259.09;4986521;28;19921;-82
2022/09/16 11:21:28;;;;;;;;;;;;;;;13.83;77.08;101255.50;5013865;28;19921;-81
2022/09/16 11:24:23;;;;;;;;;;;;;;;13.88;77.22;101255.25;4976528;28;19999;-82
2022/09/16 11:26:53;;;;;;;;;;;;;;;13.90;77.17;101246.38;4998469;28;20135;-81
2022/09/16 11:29:32;;;;;;;;;;;;;;;13.94;78.37;101253.19;5003680;28;19955;-82
2022/09/16 11:32:15;;;;;;;;;;;;;;;13.97;78.29;101250.41;4987674;28;19924;-82
2022/09/16 11:34:44;;;;;;;;;;;;;;;13.97;76.15;101258.31;4984123;28;19928;-82
2022/09/16 11:37:09;;;;;;;;;;;;;;;13.96;75.05;101266.28;5002081;28;19917;-82
2022/09/16 11:39:43;;;;;;;;;;;;;;;13.93;75.74;101287.50;4993467;28;19917;-82
2022/09/16 11:42:09;;;;;;;;;;;;;;;13.91;75.08;101271.75;4998568;28;19918;-84
2022/09/16 11:44:34;;;;;;;;;;;;;;;13.92;75.60;101270.00;4998279;28;19921;-82
2022/09/16 11:47:02;;;;;;;;;;;;;;;13.86;75.14;101276.41;5000316;28;19992;-82
2022/09/16 11:49:46;;;;;;;;;;;;;;;13.89;76.48;101268.34;4979327;28;19913;-83
2022/09/16 11:52:29;;;;;;;;;;;;;;;13.88;76.48;101277.19;5001766;28;19917;-81
2022/09/16 11:54:58;;;;;;;;;;;;;;;13.87;77.16;101269.34;5003736;28;19964;-81
2022/09/16 11:57:26;;;;;;;;;;;;;;;13.89;76.79;101267.50;4989442;28;20106;-81
2022/09/16 11:59:54;;;;;;;;;;;;;;;13.89;76.41;101276.25;5006086;28;19918;-81
2022/09/16 12:02:38;;;;;;;;;;;;;;;13.88;76.12;101273.69;4971376;28;19921;-81
2022/09/16 12:05:13;;;;;;;;;;;;;;;13.88;76.48;101271.94;4999477;28;20123;-81
2022/09/16 12:07:44;;;;;;;;;;;;;;;13.83;74.81;101280.03;4988183;28;19925;-81
2022/09/16 12:10:18;;;;;;;;;;;;;;;13.86;75.82;101283.44;4982816;28;19917;-81
2022/09/16 12:12:48;;;;;;;;;;;;;;;13.88;76.44;101279.81;4976183;28;20132;-82
2022/09/16 12:15:20;;;;;;;;;;;;;;;13.87;74.82;101277.25;4998824;28;20100;-83
2022/09/16 12:17:53;;;;;;;;;;;;;;;13.88;74.85;101279.81;4991797;28;19924;-82
2022/09/16 12:20:30;;;;;;;;;;;;;;;13.91;74.92;101277.03;4982187;28;19925;-82
2022/09/16 12:23:14;;;;;;;;;;;;;;;13.93;74.03;101277.78;4983514;28;19952;-82
2022/09/16 12:25:59;;;;;;;;;;;;;;;13.93;72.93;101290.97;4997748;28;19928;-81
2022/09/16 12:28:32;;;;;;;;;;;;;;;13.96;71.43;101276.81;4994960;28;19981;-81
2022/09/16 12:31:20;;;;;;;;;;;;;;;14.00;71.33;101291.53;4989683;28;19917;-81
2022/09/16 12:33:52;;;;;;;;;;;;;;;13.99;70.98;101301.22;4993222;28;19918;-81
2022/09/16 12:36:30;;;;;;;;;;;;;;;13.97;70.63;101299.56;4989833;28;19937;-81
2022/09/16 12:38:58;;;;;;;;;;;;;;;13.99;72.15;101322.28;4989400;28;19945;-81
2022/09/16 12:41:39;;;;;;;;;;;;;;;14.00;72.38;101320.50;5017568;28;19917;-82
2022/09/16 12:44:04;;;;;;;;;;;;;;;13.90;71.62;101324.47;4981991;28;19906;-83
2022/09/16 12:46:42;;;;;;;;;;;;;;;13.91;72.18;101326.19;4984181;28;19913;-83
2022/09/16 12:49:13;;;;;;;;;;;;;;;13.80;71.99;101326.69;4988042;28;20282;-83